Terminal Aerodrome Forecast
Issued by NWS

Home | Current Version | Previous Version | Text Only | Print | Product List | Glossary On
Versions: 1 2 3 4 5 6 7 8 9 10 11 12 13 14 15 16 17 18
249
FTUS43 KEAX 141127
TAFSTJ
TAF
KSTJ 141127Z 1412/1512 VRB06KT P6SM -TSRA BKN050CB
      TEMPO 1412/1414 3SM -TSRA BR BKN030CB
     FM141500 19010KT P6SM SCT040 OVC080
     FM142200 21012G20KT P6SM -TSRA BKN040CB
      TEMPO 1423/1501 3SM TSRA BKN020CB
     FM150200 32018G26KT P6SM SCT020=

USA.gov is the U.S. government's official web portal to all federal, state and local government web resources and services.